sensor_id;sensor_type;location;lat;lon;timestamp;P1;durP1;ratioP1;P2;durP2;ratioP2
14799;SDS011;7491;57.750;11.970;2023-01-28T00:00:03;4.57;;;1.70;;
14799;SDS011;7491;57.750;11.970;2023-01-28T00:02:32;6.18;;;1.83;;
14799;SDS011;7491;57.750;11.970;2023-01-28T00:04:58;8.63;;;1.80;;
14799;SDS011;7491;57.750;11.970;2023-01-28T00:07:25;7.90;;;2.10;;
14799;SDS011;7491;57.750;11.970;2023-01-28T00:09:51;3.05;;;2.30;;
14799;SDS011;7491;57.750;11.970;2023-01-28T00:12:18;8.02;;;1.90;;
14799;SDS011;7491;57.750;11.970;2023-01-28T00:14:44;4.55;;;1.90;;
14799;SDS011;7491;57.750;11.970;2023-01-28T00:17:12;7.18;;;2.10;;
14799;SDS011;7491;57.750;11.970;2023-01-28T00:19:40;8.93;;;2.08;;
14799;SDS011;7491;57.750;11.970;2023-01-28T00:22:06;4.75;;;2.53;;
14799;SDS011;7491;57.750;11.970;2023-01-28T00:24:32;3.10;;;1.92;;
14799;SDS011;7491;57.750;11.970;2023-01-28T00:26:59;5.28;;;1.85;;
14799;SDS011;7491;57.750;11.970;2023-01-28T00:29:25;7.93;;;2.30;;
14799;SDS011;7491;57.750;11.970;2023-01-28T00:31:52;9.35;;;2.40;;
14799;SDS011;7491;57.750;11.970;2023-01-28T00:34:18;5.47;;;2.28;;
14799;SDS011;7491;57.750;11.970;2023-01-28T00:36:46;6.40;;;3.00;;
14799;SDS011;7491;57.750;11.970;2023-01-28T00:39:22;9.40;;;2.78;;
14799;SDS011;7491;57.750;11.970;2023-01-28T00:41:48;7.68;;;2.40;;
14799;SDS011;7491;57.750;11.970;2023-01-28T00:44:14;6.53;;;1.77;;
14799;SDS011;7491;57.750;11.970;2023-01-28T00:46:41;7.95;;;3.20;;
14799;SDS011;7491;57.750;11.970;2023-01-28T00:49:07;10.93;;;2.85;;
14799;SDS011;7491;57.750;11.970;2023-01-28T00:51:34;3.60;;;2.22;;
14799;SDS011;7491;57.750;11.970;2023-01-28T00:54:02;4.90;;;2.83;;
14799;SDS011;7491;57.750;11.970;2023-01-28T00:56:28;7.03;;;2.60;;
14799;SDS011;7491;57.750;11.970;2023-01-28T00:58:55;5.85;;;2.50;;
14799;SDS011;7491;57.750;11.970;2023-01-28T01:01:23;7.45;;;2.63;;
14799;SDS011;7491;57.750;11.970;2023-01-28T01:03:50;5.40;;;2.50;;
14799;SDS011;7491;57.750;11.970;2023-01-28T01:06:22;5.57;;;2.70;;
14799;SDS011;7491;57.750;11.970;2023-01-28T01:08:48;6.88;;;2.97;;
14799;SDS011;7491;57.750;11.970;2023-01-28T01:11:16;5.57;;;2.58;;
14799;SDS011;7491;57.750;11.970;2023-01-28T01:13:43;8.68;;;2.70;;
14799;SDS011;7491;57.750;11.970;2023-01-28T01:16:10;6.75;;;2.70;;
14799;SDS011;7491;57.750;11.970;2023-01-28T01:18:37;6.85;;;2.20;;
14799;SDS011;7491;57.750;11.970;2023-01-28T01:21:06;6.97;;;2.10;;
14799;SDS011;7491;57.750;11.970;2023-01-28T01:23:33;8.63;;;2.75;;
14799;SDS011;7491;57.750;11.970;2023-01-28T01:25:59;4.72;;;2.20;;
14799;SDS011;7491;57.750;11.970;2023-01-28T01:28:27;8.05;;;2.50;;
14799;SDS011;7491;57.750;11.970;2023-01-28T01:30:57;5.25;;;2.42;;
14799;SDS011;7491;57.750;11.970;2023-01-28T01:33:24;7.78;;;1.95;;
14799;SDS011;7491;57.750;11.970;2023-01-28T01:35:52;6.65;;;2.30;;
14799;SDS011;7491;57.750;11.970;2023-01-28T01:38:18;8.73;;;2.50;;
14799;SDS011;7491;57.750;11.970;2023-01-28T01:40:45;18.25;;;2.53;;
14799;SDS011;7491;57.750;11.970;2023-01-28T01:43:14;5.07;;;1.80;;
14799;SDS011;7491;57.750;11.970;2023-01-28T01:45:42;12.20;;;2.13;;
14799;SDS011;7491;57.750;11.970;2023-01-28T01:48:11;9.82;;;2.20;;
14799;SDS011;7491;57.750;11.970;2023-01-28T01:50:40;7.20;;;1.75;;
14799;SDS011;7491;57.750;11.970;2023-01-28T01:53:08;10.63;;;2.33;;
14799;SDS011;7491;57.750;11.970;2023-01-28T01:55:35;13.07;;;2.42;;
14799;SDS011;7491;57.750;11.970;2023-01-28T01:58:06;12.45;;;2.25;;
14799;SDS011;7491;57.750;11.970;2023-01-28T02:00:33;13.40;;;2.50;;
14799;SDS011;7491;57.750;11.970;2023-01-28T02:03:00;8.32;;;2.47;;
14799;SDS011;7491;57.750;11.970;2023-01-28T02:05:27;11.95;;;2.03;;
14799;SDS011;7491;57.750;11.970;2023-01-28T02:07:54;9.05;;;2.03;;
14799;SDS011;7491;57.750;11.970;2023-01-28T02:10:42;10.05;;;2.22;;
14799;SDS011;7491;57.750;11.970;2023-01-28T02:13:08;6.47;;;1.65;;
14799;SDS011;7491;57.750;11.970;2023-01-28T02:15:35;9.43;;;2.00;;
14799;SDS011;7491;57.750;11.970;2023-01-28T02:18:03;10.18;;;2.75;;
14799;SDS011;7491;57.750;11.970;2023-01-28T02:20:31;15.18;;;2.10;;
14799;SDS011;7491;57.750;11.970;2023-01-28T02:23:16;7.75;;;2.55;;
14799;SDS011;7491;57.750;11.970;2023-01-28T02:28:42;6.70;;;1.83;;
14799;SDS011;7491;57.750;11.970;2023-01-28T02:31:13;7.72;;;1.95;;
14799;SDS011;7491;57.750;11.970;2023-01-28T02:33:43;9.98;;;2.38;;
14799;SDS011;7491;57.750;11.970;2023-01-28T02:36:15;5.57;;;2.28;;
14799;SDS011;7491;57.750;11.970;2023-01-28T02:38:44;8.63;;;2.65;;
14799;SDS011;7491;57.750;11.970;2023-01-28T02:41:12;12.90;;;2.28;;
14799;SDS011;7491;57.750;11.970;2023-01-28T02:43:43;4.68;;;1.83;;
14799;SDS011;7491;57.750;11.970;2023-01-28T02:46:11;8.52;;;2.50;;
14799;SDS011;7491;57.750;11.970;2023-01-28T02:48:56;10.57;;;2.67;;
14799;SDS011;7491;57.750;11.970;2023-01-28T02:51:25;6.32;;;1.88;;
14799;SDS011;7491;57.750;11.970;2023-01-28T02:53:55;7.90;;;2.47;;
14799;SDS011;7491;57.750;11.970;2023-01-28T02:56:25;9.13;;;2.00;;
14799;SDS011;7491;57.750;11.970;2023-01-28T02:58:57;9.32;;;2.42;;
14799;SDS011;7491;57.750;11.970;2023-01-28T03:01:45;10.95;;;2.50;;
14799;SDS011;7491;57.750;11.970;2023-01-28T03:04:14;17.80;;;2.47;;
14799;SDS011;7491;57.750;11.970;2023-01-28T03:06:45;8.57;;;2.80;;
14799;SDS011;7491;57.750;11.970;2023-01-28T03:09:13;11.50;;;2.80;;
14799;SDS011;7491;57.750;11.970;2023-01-28T03:11:52;7.80;;;2.30;;
14799;SDS011;7491;57.750;11.970;2023-01-28T03:14:38;8.07;;;2.35;;
14799;SDS011;7491;57.750;11.970;2023-01-28T03:17:24;5.85;;;1.85;;
14799;SDS011;7491;57.750;11.970;2023-01-28T03:20:09;5.78;;;1.60;;
14799;SDS011;7491;57.750;11.970;2023-01-28T03:22:54;11.65;;;2.20;;
14799;SDS011;7491;57.750;11.970;2023-01-28T03:25:39;8.02;;;2.13;;
14799;SDS011;7491;57.750;11.970;2023-01-28T03:28:24;8.30;;;2.40;;
14799;SDS011;7491;57.750;11.970;2023-01-28T03:31:10;6.78;;;2.08;;
14799;SDS011;7491;57.750;11.970;2023-01-28T03:33:55;8.40;;;1.98;;
14799;SDS011;7491;57.750;11.970;2023-01-28T03:36:40;9.35;;;1.85;;
14799;SDS011;7491;57.750;11.970;2023-01-28T03:39:12;7.05;;;2.25;;
14799;SDS011;7491;57.750;11.970;2023-01-28T03:41:39;10.18;;;2.10;;
14799;SDS011;7491;57.750;11.970;2023-01-28T03:44:05;14.00;;;3.13;;
14799;SDS011;7491;57.750;11.970;2023-01-28T03:46:51;8.77;;;2.30;;
14799;SDS011;7491;57.750;11.970;2023-01-28T03:49:18;9.73;;;2.40;;
14799;SDS011;7491;57.750;11.970;2023-01-28T03:51:44;9.75;;;1.70;;
14799;SDS011;7491;57.750;11.970;2023-01-28T03:54:11;5.85;;;1.88;;
14799;SDS011;7491;57.750;11.970;2023-01-28T03:56:37;10.65;;;2.22;;
14799;SDS011;7491;57.750;11.970;2023-01-28T03:59:04;9.93;;;2.15;;
14799;SDS011;7491;57.750;11.970;2023-01-28T04:01:31;7.60;;;2.30;;
14799;SDS011;7491;57.750;11.970;2023-01-28T04:03:59;12.55;;;2.58;;
14799;SDS011;7491;57.750;11.970;2023-01-28T04:06:25;12.23;;;2.20;;
14799;SDS011;7491;57.750;11.970;2023-01-28T04:08:53;9.57;;;2.00;;
14799;SDS011;7491;57.750;11.970;2023-01-28T04:11:23;10.00;;;2.45;;
14799;SDS011;7491;57.750;11.970;2023-01-28T04:13:50;11.82;;;3.65;;
14799;SDS011;7491;57.750;11.970;2023-01-28T04:16:17;14.18;;;2.65;;
14799;SDS011;7491;57.750;11.970;2023-01-28T04:18:44;7.10;;;1.98;;
14799;SDS011;7491;57.750;11.970;2023-01-28T04:21:12;6.25;;;2.05;;
14799;SDS011;7491;57.750;11.970;2023-01-28T04:23:38;13.80;;;2.75;;
14799;SDS011;7491;57.750;11.970;2023-01-28T04:26:05;9.30;;;2.00;;
14799;SDS011;7491;57.750;11.970;2023-01-28T04:28:32;10.98;;;2.53;;
14799;SDS011;7491;57.750;11.970;2023-01-28T04:30:58;14.25;;;2.58;;
14799;SDS011;7491;57.750;11.970;2023-01-28T04:33:25;5.70;;;2.08;;
14799;SDS011;7491;57.750;11.970;2023-01-28T04:35:51;10.38;;;2.83;;
14799;SDS011;7491;57.750;11.970;2023-01-28T04:38:19;13.70;;;2.25;;
14799;SDS011;7491;57.750;11.970;2023-01-28T04:40:48;12.23;;;2.30;;
14799;SDS011;7491;57.750;11.970;2023-01-28T04:43:14;10.43;;;2.28;;
14799;SDS011;7491;57.750;11.970;2023-01-28T04:45:40;10.95;;;2.30;;
14799;SDS011;7491;57.750;11.970;2023-01-28T04:48:07;12.57;;;3.08;;
14799;SDS011;7491;57.750;11.970;2023-01-28T04:50:33;9.98;;;3.08;;
14799;SDS011;7491;57.750;11.970;2023-01-28T04:53:00;9.65;;;2.72;;
14799;SDS011;7491;57.750;11.970;2023-01-28T04:55:27;15.50;;;2.65;;
14799;SDS011;7491;57.750;11.970;2023-01-28T04:57:54;11.52;;;2.42;;
14799;SDS011;7491;57.750;11.970;2023-01-28T05:00:20;11.45;;;2.35;;
14799;SDS011;7491;57.750;11.970;2023-01-28T05:02:47;9.07;;;2.70;;
14799;SDS011;7491;57.750;11.970;2023-01-28T05:05:13;5.95;;;2.20;;
14799;SDS011;7491;57.750;11.970;2023-01-28T05:07:40;12.73;;;3.47;;
14799;SDS011;7491;57.750;11.970;2023-01-28T05:10:06;11.07;;;2.50;;
14799;SDS011;7491;57.750;11.970;2023-01-28T05:12:34;8.25;;;2.50;;
14799;SDS011;7491;57.750;11.970;2023-01-28T05:15:01;17.00;;;3.63;;
14799;SDS011;7491;57.750;11.970;2023-01-28T05:17:28;6.78;;;2.78;;
14799;SDS011;7491;57.750;11.970;2023-01-28T05:19:54;15.55;;;2.92;;
14799;SDS011;7491;57.750;11.970;2023-01-28T05:22:21;13.75;;;2.20;;
14799;SDS011;7491;57.750;11.970;2023-01-28T05:24:47;12.20;;;2.70;;
14799;SDS011;7491;57.750;11.970;2023-01-28T05:27:13;13.95;;;2.60;;
14799;SDS011;7491;57.750;11.970;2023-01-28T05:29:41;15.30;;;2.50;;
14799;SDS011;7491;57.750;11.970;2023-01-28T05:32:08;12.02;;;2.40;;
14799;SDS011;7491;57.750;11.970;2023-01-28T05:34:34;6.88;;;2.22;;
14799;SDS011;7491;57.750;11.970;2023-01-28T05:37:01;11.25;;;2.95;;
14799;SDS011;7491;57.750;11.970;2023-01-28T05:39:28;19.95;;;3.95;;
14799;SDS011;7491;57.750;11.970;2023-01-28T05:41:55;14.80;;;2.90;;
14799;SDS011;7491;57.750;11.970;2023-01-28T05:44:21;14.20;;;2.38;;
14799;SDS011;7491;57.750;11.970;2023-01-28T05:46:49;10.82;;;2.38;;
14799;SDS011;7491;57.750;11.970;2023-01-28T05:49:16;11.52;;;3.15;;
14799;SDS011;7491;57.750;11.970;2023-01-28T05:51:42;12.35;;;2.40;;
14799;SDS011;7491;57.750;11.970;2023-01-28T05:54:09;9.10;;;2.55;;
14799;SDS011;7491;57.750;11.970;2023-01-28T05:56:35;11.30;;;2.17;;
14799;SDS011;7491;57.750;11.970;2023-01-28T05:59:02;16.65;;;2.90;;
14799;SDS011;7491;57.750;11.970;2023-01-28T06:01:29;11.55;;;3.35;;
14799;SDS011;7491;57.750;11.970;2023-01-28T06:03:57;12.30;;;2.47;;
14799;SDS011;7491;57.750;11.970;2023-01-28T06:06:24;13.05;;;2.85;;
14799;SDS011;7491;57.750;11.970;2023-01-28T06:08:50;12.88;;;2.88;;
14799;SDS011;7491;57.750;11.970;2023-01-28T06:11:17;12.10;;;2.42;;
14799;SDS011;7491;57.750;11.970;2023-01-28T06:13:43;10.93;;;2.53;;
14799;SDS011;7491;57.750;11.970;2023-01-28T06:16:10;11.57;;;2.72;;
14799;SDS011;7491;57.750;11.970;2023-01-28T06:18:36;10.45;;;2.63;;
14799;SDS011;7491;57.750;11.970;2023-01-28T06:21:04;13.77;;;3.42;;
14799;SDS011;7491;57.750;11.970;2023-01-28T06:23:30;11.68;;;2.90;;
14799;SDS011;7491;57.750;11.970;2023-01-28T06:25:57;22.35;;;3.30;;
14799;SDS011;7491;57.750;11.970;2023-01-28T06:28:23;13.75;;;3.05;;
14799;SDS011;7491;57.750;11.970;2023-01-28T06:30:50;13.38;;;2.90;;
14799;SDS011;7491;57.750;11.970;2023-01-28T06:33:17;13.05;;;3.00;;
14799;SDS011;7491;57.750;11.970;2023-01-28T06:35:43;10.38;;;2.95;;
14799;SDS011;7491;57.750;11.970;2023-01-28T06:38:11;8.95;;;2.78;;
14799;SDS011;7491;57.750;11.970;2023-01-28T06:40:37;13.77;;;3.08;;
14799;SDS011;7491;57.750;11.970;2023-01-28T06:43:04;13.10;;;3.15;;
14799;SDS011;7491;57.750;11.970;2023-01-28T06:45:31;13.68;;;3.28;;
14799;SDS011;7491;57.750;11.970;2023-01-28T06:47:58;14.60;;;2.78;;
14799;SDS011;7491;57.750;11.970;2023-01-28T06:50:24;19.33;;;3.42;;
14799;SDS011;7491;57.750;11.970;2023-01-28T06:52:50;13.80;;;4.05;;
14799;SDS011;7491;57.750;11.970;2023-01-28T06:55:18;15.52;;;3.85;;
14799;SDS011;7491;57.750;11.970;2023-01-28T06:57:44;15.10;;;4.03;;
14799;SDS011;7491;57.750;11.970;2023-01-28T07:00:11;13.13;;;3.28;;
14799;SDS011;7491;57.750;11.970;2023-01-28T07:02:39;11.88;;;3.42;;
14799;SDS011;7491;57.750;11.970;2023-01-28T07:05:06;11.07;;;3.17;;
14799;SDS011;7491;57.750;11.970;2023-01-28T07:07:33;17.27;;;3.33;;
14799;SDS011;7491;57.750;11.970;2023-01-28T07:09:59;9.75;;;2.75;;
14799;SDS011;7491;57.750;11.970;2023-01-28T07:12:27;14.85;;;3.53;;
14799;SDS011;7491;57.750;11.970;2023-01-28T07:14:53;22.17;;;4.20;;
14799;SDS011;7491;57.750;11.970;2023-01-28T07:17:20;9.15;;;3.65;;
14799;SDS011;7491;57.750;11.970;2023-01-28T07:19:46;11.82;;;3.10;;
14799;SDS011;7491;57.750;11.970;2023-01-28T07:22:12;15.75;;;4.40;;
14799;SDS011;7491;57.750;11.970;2023-01-28T07:24:39;16.00;;;3.80;;
14799;SDS011;7491;57.750;11.970;2023-01-28T07:27:05;24.00;;;4.97;;
14799;SDS011;7491;57.750;11.970;2023-01-28T07:29:33;12.23;;;3.10;;
14799;SDS011;7491;57.750;11.970;2023-01-28T07:31:59;16.73;;;3.45;;
14799;SDS011;7491;57.750;11.970;2023-01-28T07:34:26;12.75;;;3.10;;
14799;SDS011;7491;57.750;11.970;2023-01-28T07:36:52;10.90;;;3.33;;
14799;SDS011;7491;57.750;11.970;2023-01-28T07:39:19;17.88;;;3.55;;
14799;SDS011;7491;57.750;11.970;2023-01-28T07:41:46;15.57;;;4.35;;
14799;SDS011;7491;57.750;11.970;2023-01-28T07:44:12;18.17;;;4.15;;
14799;SDS011;7491;57.750;11.970;2023-01-28T07:46:40;10.55;;;3.20;;
14799;SDS011;7491;57.750;11.970;2023-01-28T07:49:06;17.77;;;3.85;;
14799;SDS011;7491;57.750;11.970;2023-01-28T07:51:33;16.25;;;3.58;;
14799;SDS011;7491;57.750;11.970;2023-01-28T07:53:59;11.15;;;2.97;;
14799;SDS011;7491;57.750;11.970;2023-01-28T07:56:26;23.77;;;5.53;;
14799;SDS011;7491;57.750;11.970;2023-01-28T07:58:53;20.95;;;3.83;;
14799;SDS011;7491;57.750;11.970;2023-01-28T08:01:19;14.88;;;3.58;;
14799;SDS011;7491;57.750;11.970;2023-01-28T08:03:47;10.07;;;4.05;;
14799;SDS011;7491;57.750;11.970;2023-01-28T08:06:14;20.27;;;8.13;;
14799;SDS011;7491;57.750;11.970;2023-01-28T08:08:40;14.27;;;4.35;;
14799;SDS011;7491;57.750;11.970;2023-01-28T08:11:07;15.30;;;3.65;;
14799;SDS011;7491;57.750;11.970;2023-01-28T08:13:34;16.60;;;4.65;;
14799;SDS011;7491;57.750;11.970;2023-01-28T08:16:01;13.80;;;4.07;;
14799;SDS011;7491;57.750;11.970;2023-01-28T08:18:27;23.23;;;3.42;;
14799;SDS011;7491;57.750;11.970;2023-01-28T08:20:55;23.00;;;7.85;;
14799;SDS011;7491;57.750;11.970;2023-01-28T08:23:22;15.73;;;5.13;;
14799;SDS011;7491;57.750;11.970;2023-01-28T08:25:51;20.50;;;9.90;;
14799;SDS011;7491;57.750;11.970;2023-01-28T08:28:17;21.98;;;5.13;;
14799;SDS011;7491;57.750;11.970;2023-01-28T08:30:44;18.70;;;7.68;;
14799;SDS011;7491;57.750;11.970;2023-01-28T08:33:11;10.70;;;2.70;;
14799;SDS011;7491;57.750;11.970;2023-01-28T08:35:38;8.65;;;2.20;;
14799;SDS011;7491;57.750;11.970;2023-01-28T08:38:06;16.73;;;7.00;;
14799;SDS011;7491;57.750;11.970;2023-01-28T08:40:33;13.48;;;3.72;;
14799;SDS011;7491;57.750;11.970;2023-01-28T08:43:00;9.90;;;2.90;;
14799;SDS011;7491;57.750;11.970;2023-01-28T08:45:26;18.83;;;3.95;;
14799;SDS011;7491;57.750;11.970;2023-01-28T08:47:53;14.82;;;3.30;;
14799;SDS011;7491;57.750;11.970;2023-01-28T08:50:20;20.98;;;9.20;;
14799;SDS011;7491;57.750;11.970;2023-01-28T08:52:47;26.15;;;13.10;;
14799;SDS011;7491;57.750;11.970;2023-01-28T08:55:15;13.82;;;7.82;;
14799;SDS011;7491;57.750;11.970;2023-01-28T08:57:43;16.23;;;3.42;;
14799;SDS011;7491;57.750;11.970;2023-01-28T09:00:10;10.45;;;4.05;;
14799;SDS011;7491;57.750;11.970;2023-01-28T09:02:36;15.00;;;2.83;;
14799;SDS011;7491;57.750;11.970;2023-01-28T09:05:03;19.20;;;2.90;;
14799;SDS011;7491;57.750;11.970;2023-01-28T09:07:30;13.70;;;3.10;;
14799;SDS011;7491;57.750;11.970;2023-01-28T09:09:56;16.15;;;7.50;;
14799;SDS011;7491;57.750;11.970;2023-01-28T09:12:24;9.07;;;4.45;;
14799;SDS011;7491;57.750;11.970;2023-01-28T09:14:51;16.17;;;4.45;;
14799;SDS011;7491;57.750;11.970;2023-01-28T09:17:17;16.83;;;6.00;;
14799;SDS011;7491;57.750;11.970;2023-01-28T09:19:44;17.20;;;3.55;;
14799;SDS011;7491;57.750;11.970;2023-01-28T09:22:10;19.85;;;6.93;;
14799;SDS011;7491;57.750;11.970;2023-01-28T09:24:37;39.03;;;18.25;;
14799;SDS011;7491;57.750;11.970;2023-01-28T09:27:03;11.10;;;4.00;;
14799;SDS011;7491;57.750;11.970;2023-01-28T09:29:31;12.07;;;3.03;;
14799;SDS011;7491;57.750;11.970;2023-01-28T09:31:58;13.32;;;3.25;;
14799;SDS011;7491;57.750;11.970;2023-01-28T09:34:25;19.17;;;5.45;;
14799;SDS011;7491;57.750;11.970;2023-01-28T09:36:51;11.75;;;2.90;;
14799;SDS011;7491;57.750;11.970;2023-01-28T09:39:17;26.10;;;6.93;;
14799;SDS011;7491;57.750;11.970;2023-01-28T09:41:46;10.23;;;2.75;;
14799;SDS011;7491;57.750;11.970;2023-01-28T09:44:21;14.15;;;3.35;;
14799;SDS011;7491;57.750;11.970;2023-01-28T09:46:52;13.13;;;3.05;;
14799;SDS011;7491;57.750;11.970;2023-01-28T09:49:19;16.85;;;3.50;;
14799;SDS011;7491;57.750;11.970;2023-01-28T09:51:48;7.57;;;2.33;;
14799;SDS011;7491;57.750;11.970;2023-01-28T09:54:19;9.02;;;1.77;;
14799;SDS011;7491;57.750;11.970;2023-01-28T09:56:50;15.07;;;3.83;;
14799;SDS011;7491;57.750;11.970;2023-01-28T09:59:19;10.30;;;2.50;;
14799;SDS011;7491;57.750;11.970;2023-01-28T10:01:46;21.10;;;3.35;;
14799;SDS011;7491;57.750;11.970;2023-01-28T10:04:20;9.32;;;3.40;;
14799;SDS011;7491;57.750;11.970;2023-01-28T10:06:53;15.90;;;5.00;;
14799;SDS011;7491;57.750;11.970;2023-01-28T10:09:26;17.17;;;3.78;;
14799;SDS011;7491;57.750;11.970;2023-01-28T10:11:59;13.13;;;3.28;;
14799;SDS011;7491;57.750;11.970;2023-01-28T10:14:32;17.65;;;5.90;;
14799;SDS011;7491;57.750;11.970;2023-01-28T10:17:02;18.83;;;3.85;;
14799;SDS011;7491;57.750;11.970;2023-01-28T10:19:32;12.10;;;4.95;;
14799;SDS011;7491;57.750;11.970;2023-01-28T10:22:01;18.27;;;4.43;;
14799;SDS011;7491;57.750;11.970;2023-01-28T10:24:30;17.88;;;4.55;;
14799;SDS011;7491;57.750;11.970;2023-01-28T10:26:57;14.05;;;3.63;;
14799;SDS011;7491;57.750;11.970;2023-01-28T10:29:24;18.00;;;7.93;;
14799;SDS011;7491;57.750;11.970;2023-01-28T10:31:51;11.35;;;4.22;;
14799;SDS011;7491;57.750;11.970;2023-01-28T10:34:18;22.90;;;15.32;;
14799;SDS011;7491;57.750;11.970;2023-01-28T10:36:46;17.67;;;3.05;;
14799;SDS011;7491;57.750;11.970;2023-01-28T10:39:12;8.25;;;2.85;;
14799;SDS011;7491;57.750;11.970;2023-01-28T10:41:40;6.53;;;2.30;;
14799;SDS011;7491;57.750;11.970;2023-01-28T10:44:08;28.40;;;4.78;;
14799;SDS011;7491;57.750;11.970;2023-01-28T10:46:38;15.48;;;3.38;;
14799;SDS011;7491;57.750;11.970;2023-01-28T10:49:10;18.15;;;3.78;;
14799;SDS011;7491;57.750;11.970;2023-01-28T10:51:39;20.92;;;5.40;;
14799;SDS011;7491;57.750;11.970;2023-01-28T10:54:16;17.30;;;3.78;;
14799;SDS011;7491;57.750;11.970;2023-01-28T10:56:43;22.67;;;5.80;;
14799;SDS011;7491;57.750;11.970;2023-01-28T10:59:17;19.55;;;3.85;;
14799;SDS011;7491;57.750;11.970;2023-01-28T11:01:44;14.30;;;4.15;;
14799;SDS011;7491;57.750;11.970;2023-01-28T11:04:16;20.30;;;3.95;;
14799;SDS011;7491;57.750;11.970;2023-01-28T11:06:50;33.10;;;4.45;;
14799;SDS011;7491;57.750;11.970;2023-01-28T11:09:22;12.65;;;4.40;;
14799;SDS011;7491;57.750;11.970;2023-01-28T11:11:49;17.50;;;3.67;;
14799;SDS011;7491;57.750;11.970;2023-01-28T11:14:19;22.55;;;4.93;;
14799;SDS011;7491;57.750;11.970;2023-01-28T11:16:46;14.98;;;4.03;;
14799;SDS011;7491;57.750;11.970;2023-01-28T11:19:12;18.27;;;3.92;;
14799;SDS011;7491;57.750;11.970;2023-01-28T11:21:39;11.80;;;3.25;;
14799;SDS011;7491;57.750;11.970;2023-01-28T11:24:06;22.50;;;9.00;;
14799;SDS011;7491;57.750;11.970;2023-01-28T11:26:42;13.23;;;2.90;;
14799;SDS011;7491;57.750;11.970;2023-01-28T11:29:17;11.13;;;2.60;;
14799;SDS011;7491;57.750;11.970;2023-01-28T11:31:45;20.33;;;4.55;;
14799;SDS011;7491;57.750;11.970;2023-01-28T11:34:13;15.45;;;3.40;;
14799;SDS011;7491;57.750;11.970;2023-01-28T11:36:48;19.73;;;3.05;;
14799;SDS011;7491;57.750;11.970;2023-01-28T11:39:16;19.60;;;2.92;;
14799;SDS011;7491;57.750;11.970;2023-01-28T11:41:45;15.80;;;3.20;;
14799;SDS011;7491;57.750;11.970;2023-01-28T11:44:20;22.67;;;4.22;;
14799;SDS011;7491;57.750;11.970;2023-01-28T11:47:03;16.48;;;4.70;;
14799;SDS011;7491;57.750;11.970;2023-01-28T11:49:35;19.55;;;4.63;;
14799;SDS011;7491;57.750;11.970;2023-01-28T11:52:05;13.45;;;5.40;;
14799;SDS011;7491;57.750;11.970;2023-01-28T11:54:38;24.05;;;4.82;;
14799;SDS011;7491;57.750;11.970;2023-01-28T11:57:12;19.45;;;4.28;;
14799;SDS011;7491;57.750;11.970;2023-01-28T12:05:13;15.50;;;4.60;;
14799;SDS011;7491;57.750;11.970;2023-01-28T12:07:43;20.63;;;4.75;;
14799;SDS011;7491;57.750;11.970;2023-01-28T12:10:14;20.75;;;4.95;;
14799;SDS011;7491;57.750;11.970;2023-01-28T12:12:50;20.88;;;5.68;;
14799;SDS011;7491;57.750;11.970;2023-01-28T12:15:34;23.73;;;4.93;;
14799;SDS011;7491;57.750;11.970;2023-01-28T12:18:26;28.38;;;6.60;;
14799;SDS011;7491;57.750;11.970;2023-01-28T12:20:56;25.20;;;5.38;;
14799;SDS011;7491;57.750;11.970;2023-01-28T12:23:35;26.98;;;4.53;;
14799;SDS011;7491;57.750;11.970;2023-01-28T12:26:05;25.00;;;4.05;;
14799;SDS011;7491;57.750;11.970;2023-01-28T12:28:42;24.90;;;4.30;;
14799;SDS011;7491;57.750;11.970;2023-01-28T12:31:20;26.00;;;4.35;;
14799;SDS011;7491;57.750;11.970;2023-01-28T12:34:06;19.05;;;4.28;;
14799;SDS011;7491;57.750;11.970;2023-01-28T12:36:44;19.88;;;4.65;;
14799;SDS011;7491;57.750;11.970;2023-01-28T12:39:17;13.27;;;3.83;;
14799;SDS011;7491;57.750;11.970;2023-01-28T12:41:48;17.17;;;4.25;;
14799;SDS011;7491;57.750;11.970;2023-01-28T12:44:19;17.05;;;3.85;;
14799;SDS011;7491;57.750;11.970;2023-01-28T12:46:49;14.35;;;3.05;;
14799;SDS011;7491;57.750;11.970;2023-01-28T12:49:18;15.18;;;3.60;;
14799;SDS011;7491;57.750;11.970;2023-01-28T12:51:52;18.95;;;4.15;;
14799;SDS011;7491;57.750;11.970;2023-01-28T12:54:20;21.65;;;5.30;;
14799;SDS011;7491;57.750;11.970;2023-01-28T12:56:49;20.98;;;4.40;;
14799;SDS011;7491;57.750;11.970;2023-01-28T12:59:19;19.77;;;4.40;;
14799;SDS011;7491;57.750;11.970;2023-01-28T13:01:48;14.93;;;4.22;;
14799;SDS011;7491;57.750;11.970;2023-01-28T13:04:17;26.30;;;5.25;;
14799;SDS011;7491;57.750;11.970;2023-01-28T13:06:46;18.10;;;4.20;;
14799;SDS011;7491;57.750;11.970;2023-01-28T13:09:16;21.65;;;4.75;;
14799;SDS011;7491;57.750;11.970;2023-01-28T13:11:44;24.55;;;5.55;;
14799;SDS011;7491;57.750;11.970;2023-01-28T13:14:12;23.63;;;5.22;;
14799;SDS011;7491;57.750;11.970;2023-01-28T13:16:40;22.17;;;4.55;;
14799;SDS011;7491;57.750;11.970;2023-01-28T13:19:08;24.83;;;5.18;;
14799;SDS011;7491;57.750;11.970;2023-01-28T13:21:38;19.02;;;4.50;;
14799;SDS011;7491;57.750;11.970;2023-01-28T13:24:06;24.20;;;5.57;;
14799;SDS011;7491;57.750;11.970;2023-01-28T13:26:45;22.27;;;5.18;;
14799;SDS011;7491;57.750;11.970;2023-01-28T13:29:28;19.50;;;4.57;;
14799;SDS011;7491;57.750;11.970;2023-01-28T13:31:57;20.27;;;3.78;;
14799;SDS011;7491;57.750;11.970;2023-01-28T13:34:28;29.83;;;7.05;;
14799;SDS011;7491;57.750;11.970;2023-01-28T13:36:57;22.67;;;5.28;;
14799;SDS011;7491;57.750;11.970;2023-01-28T13:39:25;19.65;;;4.80;;
14799;SDS011;7491;57.750;11.970;2023-01-28T13:41:52;29.75;;;6.07;;
14799;SDS011;7491;57.750;11.970;2023-01-28T13:44:20;27.45;;;5.95;;
14799;SDS011;7491;57.750;11.970;2023-01-28T13:46:47;24.08;;;4.78;;
14799;SDS011;7491;57.750;11.970;2023-01-28T13:49:16;22.70;;;4.53;;
14799;SDS011;7491;57.750;11.970;2023-01-28T13:51:46;19.65;;;5.10;;
14799;SDS011;7491;57.750;11.970;2023-01-28T13:54:19;22.02;;;4.88;;
14799;SDS011;7491;57.750;11.970;2023-01-28T13:56:51;34.38;;;4.47;;
14799;SDS011;7491;57.750;11.970;2023-01-28T13:59:25;16.38;;;4.53;;
14799;SDS011;7491;57.750;11.970;2023-01-28T14:04:51;34.28;;;5.32;;
14799;SDS011;7491;57.750;11.970;2023-01-28T14:07:29;24.75;;;4.35;;
14799;SDS011;7491;57.750;11.970;2023-01-28T14:10:02;21.67;;;3.17;;
14799;SDS011;7491;57.750;11.970;2023-01-28T14:12:34;18.92;;;4.50;;
14799;SDS011;7491;57.750;11.970;2023-01-28T14:17:47;24.23;;;4.13;;
14799;SDS011;7491;57.750;11.970;2023-01-28T14:20:17;28.88;;;4.90;;
14799;SDS011;7491;57.750;11.970;2023-01-28T14:22:45;29.05;;;4.05;;
14799;SDS011;7491;57.750;11.970;2023-01-28T14:25:13;25.15;;;4.55;;
14799;SDS011;7491;57.750;11.970;2023-01-28T14:27:41;26.50;;;4.60;;
14799;SDS011;7491;57.750;11.970;2023-01-28T14:30:12;25.58;;;3.97;;
14799;SDS011;7491;57.750;11.970;2023-01-28T14:32:44;28.33;;;3.97;;
14799;SDS011;7491;57.750;11.970;2023-01-28T14:35:11;29.08;;;5.47;;
14799;SDS011;7491;57.750;11.970;2023-01-28T14:37:42;25.95;;;4.30;;
14799;SDS011;7491;57.750;11.970;2023-01-28T14:40:11;29.63;;;4.20;;
14799;SDS011;7491;57.750;11.970;2023-01-28T14:42:39;29.77;;;4.32;;
14799;SDS011;7491;57.750;11.970;2023-01-28T14:45:10;20.65;;;3.97;;
14799;SDS011;7491;57.750;11.970;2023-01-28T14:47:48;32.35;;;4.32;;
14799;SDS011;7491;57.750;11.970;2023-01-28T14:50:21;24.60;;;4.38;;
14799;SDS011;7491;57.750;11.970;2023-01-28T14:52:54;23.88;;;4.35;;
14799;SDS011;7491;57.750;11.970;2023-01-28T14:55:29;25.88;;;3.95;;
14799;SDS011;7491;57.750;11.970;2023-01-28T14:57:59;33.83;;;4.95;;
14799;SDS011;7491;57.750;11.970;2023-01-28T15:00:28;29.27;;;4.35;;
14799;SDS011;7491;57.750;11.970;2023-01-28T15:02:55;25.38;;;4.70;;